Time;durP1;ratioP1;P1;durP2;ratioP2;P2;SDS_P1;SDS_P2;PMS_P1;PMS_P2;Temp;Humidity;BMP_temperature;BMP_pressure;BME280_temperature;BME280_humidity;BME280_pressure;Samples;Min_cycle;Max_cycle;Signal;HPM_P1;HPM_P2
2022/03/14 00:01:33;;;;;;;15.00;11.90;;;7.80;63.70;;;;;;6123955;23;20716;-82
2022/03/14 00:04:01;;;;;;;17.33;12.73;;;7.70;64.00;;;;;;6127461;23;20597;-82
2022/03/14 00:06:45;;;;;;;19.50;12.13;;;7.70;64.50;;;;;;6146722;23;20259;-82
2022/03/14 00:09:10;;;;;;;15.37;12.60;;;7.80;64.60;;;;;;6125338;23;20419;-81
2022/03/14 00:11:37;;;;;;;16.00;12.20;;;7.90;64.50;;;;;;6124702;23;21287;-81
2022/03/14 00:14:07;;;;;;;14.10;11.93;;;8.00;64.80;;;;;;6123868;23;20262;-82
2022/03/14 00:16:36;;;;;;;19.33;11.83;;;8.00;64.70;;;;;;6124350;23;20910;-82
2022/03/14 00:19:02;;;;;;;17.23;12.70;;;8.10;64.20;;;;;;6122651;23;20418;-82
2022/03/14 00:21:31;;;;;;;15.67;12.13;;;8.10;64.20;;;;;;6125877;23;20400;-82
2022/03/14 00:23:57;;;;;;;15.77;11.80;;;8.20;64.10;;;;;;6127501;23;20883;-82
2022/03/14 00:26:24;;;;;;;17.30;12.93;;;8.20;63.90;;;;;;6125958;23;20435;-82
2022/03/14 00:28:50;;;;;;;16.20;11.53;;;8.20;64.00;;;;;;6124709;23;20768;-82
2022/03/14 00:31:16;;;;;;;15.37;11.67;;;8.30;63.90;;;;;;6124635;23;20882;-82
2022/03/14 00:33:42;;;;;;;11.80;10.20;;;8.30;63.50;;;;;;6123248;23;20450;-82
2022/03/14 00:36:09;;;;;;;15.50;12.13;;;8.30;63.80;;;;;;6125010;23;20519;-81
2022/03/14 00:38:36;;;;;;;12.57;11.30;;;8.40;64.00;;;;;;6126142;23;20405;-81
2022/03/14 00:41:03;;;;;;;17.30;11.83;;;8.40;64.10;;;;;;6124303;23;20569;-81
2022/03/14 00:43:30;;;;;;;16.73;12.53;;;8.30;64.00;;;;;;6125235;23;20405;-81
2022/03/14 00:45:56;;;;;;;15.57;12.17;;;8.40;63.60;;;;;;6123891;23;21061;-81
2022/03/14 00:48:22;;;;;;;14.47;11.97;;;8.50;63.90;;;;;;6125652;23;20856;-81
2022/03/14 00:50:48;;;;;;;14.53;12.17;;;8.40;63.60;;;;;;6125690;23;20392;-81
2022/03/14 00:53:13;;;;;;;15.53;10.43;;;8.40;64.00;;;;;;6125073;23;20653;-81
2022/03/14 00:55:39;;;;;;;14.50;11.70;;;8.40;63.90;;;;;;6125674;23;20157;-82
2022/03/14 00:58:04;;;;;;;13.27;10.87;;;8.40;63.20;;;;;;6124794;23;20191;-81
2022/03/14 01:00:30;;;;;;;13.13;10.97;;;8.30;63.20;;;;;;6122311;23;20280;-81
2022/03/14 01:02:55;;;;;;;13.53;10.80;;;8.40;63.20;;;;;;6126222;23;20160;-81
2022/03/14 01:05:21;;;;;;;17.17;11.13;;;8.40;63.30;;;;;;6124127;23;20190;-81
2022/03/14 01:07:46;;;;;;;11.87;10.13;;;8.40;63.60;;;;;;6125687;23;20633;-81
2022/03/14 01:10:13;;;;;;;13.53;10.60;;;8.30;64.30;;;;;;6127343;23;20870;-81
2022/03/14 01:12:39;;;;;;;13.43;10.93;;;8.30;64.50;;;;;;6127510;23;20156;-81
2022/03/14 01:15:05;;;;;;;13.37;11.37;;;8.30;65.40;;;;;;6122803;23;20461;-81
2022/03/14 01:17:31;;;;;;;14.57;10.87;;;8.30;65.40;;;;;;6125501;23;20443;-81
2022/03/14 01:19:57;;;;;;;13.77;10.70;;;8.40;66.70;;;;;;6126383;23;20696;-82
2022/03/14 01:22:22;;;;;;;16.70;12.37;;;8.50;65.40;;;;;;6122334;23;20161;-82
2022/03/14 01:24:48;;;;;;;12.10;10.80;;;8.60;66.40;;;;;;6126191;23;20170;-82
2022/03/14 01:27:14;;;;;;;15.87;12.20;;;8.60;66.70;;;;;;6125636;23;20550;-82
2022/03/14 01:29:39;;;;;;;15.40;12.30;;;8.60;65.50;;;;;;6125912;23;20527;-81
2022/03/14 01:32:06;;;;;;;14.40;11.60;;;8.70;65.20;;;;;;6126108;23;20168;-81
2022/03/14 01:34:33;;;;;;;13.77;10.90;;;8.60;65.20;;;;;;6131208;23;20164;-82
2022/03/14 01:36:59;;;;;;;16.20;11.10;;;8.70;65.60;;;;;;6124664;23;20435;-81
2022/03/14 01:39:25;;;;;;;15.23;10.90;;;8.40;64.80;;;;;;6124634;23;20392;-81
2022/03/14 01:41:51;;;;;;;15.33;11.03;;;8.40;64.70;;;;;;6126400;23;20391;-81
2022/03/14 01:44:17;;;;;;;15.17;10.53;;;8.50;65.00;;;;;;6124653;23;20396;-81
2022/03/14 01:46:43;;;;;;;14.47;11.37;;;8.40;65.30;;;;;;6126422;23;21221;-81
2022/03/14 01:49:12;;;;;;;14.27;10.37;;;8.40;66.00;;;;;;6124905;23;20395;-81
2022/03/14 01:51:39;;;;;;;14.60;11.60;;;8.50;66.50;;;;;;6120364;23;20738;-81
2022/03/14 01:54:05;;;;;;;17.67;11.90;;;8.80;67.50;;;;;;6120279;23;20401;-81
2022/03/14 01:56:31;;;;;;;15.17;12.60;;;9.00;68.80;;;;;;6123285;23;20970;-81
2022/03/14 01:58:58;;;;;;;17.20;12.63;;;9.10;69.80;;;;;;6122022;23;20400;-81
2022/03/14 02:01:23;;;;;;;16.93;12.73;;;9.20;71.50;;;;;;6123520;23;20729;-81
2022/03/14 02:03:50;;;;;;;19.07;13.43;;;9.30;72.60;;;;;;6127869;23;21013;-82
2022/03/14 02:06:17;;;;;;;15.70;12.57;;;9.40;73.60;;;;;;6123921;23;20163;-81
2022/03/14 02:08:42;;;;;;;19.83;13.47;;;9.40;74.80;;;;;;6124704;23;20400;-81
2022/03/14 02:11:08;;;;;;;18.03;13.77;;;9.40;76.50;;;;;;6123487;23;20990;-81
2022/03/14 02:13:34;;;;;;;16.60;13.67;;;9.50;77.40;;;;;;6123699;23;20331;-82
2022/03/14 02:15:59;;;;;;;17.67;14.00;;;9.50;81.20;;;;;;6125168;23;20158;-82
2022/03/14 02:18:25;;;;;;;19.30;14.87;;;9.40;87.10;;;;;;6128287;23;20205;-81
2022/03/14 02:20:51;;;;;;;17.77;14.83;;;9.30;92.10;;;;;;6128275;23;20171;-83
2022/03/14 02:23:17;;;;;;;19.80;15.37;;;9.20;97.20;;;;;;6125893;23;20588;-82
2022/03/14 02:25:50;;;;;;;17.30;14.20;;;9.20;99.90;;;;;;6127283;23;20189;-82
2022/03/14 02:28:16;;;;;;;18.90;14.23;;;9.40;99.90;;;;;;6126159;23;20166;-82
2022/03/14 02:30:48;;;;;;;17.80;14.60;;;9.50;99.90;;;;;;6126646;23;20444;-81
2022/03/14 02:33:36;;;;;;;18.00;14.80;;;9.50;99.90;;;;;;6126497;23;20385;-81
2022/03/14 02:36:05;;;;;;;18.30;15.40;;;9.50;99.90;;;;;;6125870;23;20386;-82
2022/03/14 02:38:33;;;;;;;17.17;14.17;;;9.60;99.90;;;;;;6126585;23;20410;-82
2022/03/14 02:41:22;;;;;;;17.73;14.60;;;9.60;99.90;;;;;;6130674;23;20591;-90
2022/03/14 02:43:52;;;;;;;19.70;15.47;;;9.60;99.90;;;;;;6151354;23;20398;-90
2022/03/14 02:46:45;;;;;;;22.00;17.60;;;9.50;99.90;;;;;;6155216;23;20389;-91
2022/03/14 02:49:12;;;;;;;21.77;16.30;;;9.50;99.90;;;;;;6132459;23;20777;-91
2022/03/14 02:51:38;;;;;;;19.90;16.20;;;9.50;99.90;;;;;;6128286;23;20401;-90
2022/03/14 02:54:13;;;;;;;22.70;17.67;;;9.30;99.90;;;;;;6129914;23;20952;-90
2022/03/14 02:56:40;;;;;;;22.07;16.83;;;9.30;99.90;;;;;;6132533;23;20914;-91
2022/03/14 02:59:07;;;;;;;22.10;16.63;;;9.10;99.90;;;;;;6132254;23;20738;-91
2022/03/14 03:01:33;;;;;;;22.03;16.83;;;9.10;99.90;;;;;;6157051;23;20428;-91
2022/03/14 03:04:02;;;;;;;21.30;16.93;;;9.00;99.90;;;;;;6134710;23;20392;-90
2022/03/14 03:06:28;;;;;;;23.50;18.33;;;8.90;99.90;;;;;;6131754;23;20414;-90
2022/03/14 03:08:54;;;;;;;21.80;17.20;;;9.00;99.90;;;;;;6129085;23;20389;-91
2022/03/14 03:11:21;;;;;;;21.00;17.00;;;9.00;99.90;;;;;;6130293;23;20381;-90
2022/03/14 03:13:48;;;;;;;22.70;16.53;;;8.90;99.90;;;;;;6130790;23;20754;-89
2022/03/14 03:16:15;;;;;;;19.00;15.73;;;8.80;99.90;;;;;;6130301;23;20385;-89
2022/03/14 03:18:41;;;;;;;20.60;15.70;;;8.80;99.90;;;;;;6128832;23;20493;-90
2022/03/14 03:21:07;;;;;;;20.60;15.50;;;8.70;99.90;;;;;;6132395;23;20714;-90
2022/03/14 03:23:34;;;;;;;19.03;15.23;;;8.90;99.90;;;;;;6133078;23;20686;-90
2022/03/14 03:26:00;;;;;;;21.70;14.60;;;8.50;99.90;;;;;;6130808;23;20450;-90
2022/03/14 03:28:26;;;;;;;17.97;14.60;;;8.50;99.90;;;;;;6130943;23;20391;-90
2022/03/14 03:30:52;;;;;;;19.73;14.07;;;8.50;99.90;;;;;;6126737;23;20976;-89
2022/03/14 03:33:18;;;;;;;18.03;13.40;;;8.50;99.90;;;;;;6129348;23;20252;-89
2022/03/14 03:35:43;;;;;;;16.50;12.27;;;8.50;99.90;;;;;;6129768;23;20494;-89
2022/03/14 03:38:12;;;;;;;13.60;10.30;;;8.40;99.90;;;;;;6132557;23;20197;-89
2022/03/14 03:40:38;;;;;;;12.33;9.97;;;8.50;99.90;;;;;;6130885;23;20190;-89
2022/03/14 03:43:04;;;;;;;8.10;6.80;;;8.40;99.90;;;;;;6130941;23;20880;-90
2022/03/14 03:45:29;;;;;;;9.70;6.57;;;8.40;99.90;;;;;;6154836;23;20364;-90
2022/03/14 03:47:55;;;;;;;6.73;5.87;;;8.50;99.90;;;;;;6128181;23;20659;-89
2022/03/14 03:50:23;;;;;;;6.13;4.80;;;8.50;99.90;;;;;;6130608;23;20477;-90
2022/03/14 03:52:54;;;;;;;5.57;4.60;;;8.50;99.90;;;;;;6129836;23;20421;-88
2022/03/14 03:55:25;;;;;;;5.53;3.70;;;8.40;99.90;;;;;;6123693;23;20418;-89
2022/03/14 03:57:53;;;;;;;3.13;2.83;;;8.50;99.90;;;;;;6125426;23;20447;-88
2022/03/14 04:00:20;;;;;;;3.53;3.23;;;8.40;99.90;;;;;;6124335;23;20406;-87
2022/03/14 04:02:46;;;;;;;3.77;2.47;;;8.40;99.90;;;;;;6129073;23;20406;-87
2022/03/14 04:05:17;;;;;;;2.70;2.37;;;8.40;99.90;;;;;;6126264;23;20801;-88
2022/03/14 04:07:43;;;;;;;3.10;2.30;;;8.40;99.90;;;;;;6127677;23;20471;-88
2022/03/14 04:10:12;;;;;;;2.97;2.67;;;8.40;99.90;;;;;;6128119;23;20431;-89
2022/03/14 04:12:39;;;;;;;2.83;2.47;;;8.40;99.90;;;;;;6131958;23;20775;-88
2022/03/14 04:15:07;;;;;;;3.37;3.00;;;8.40;99.90;;;;;;6128659;23;20384;-89
2022/03/14 04:17:38;;;;;;;2.90;2.70;;;8.40;99.90;;;;;;6132776;23;20444;-88
2022/03/14 04:20:06;;;;;;;3.90;3.10;;;8.40;99.90;;;;;;6132827;23;20486;-89
2022/03/14 04:22:32;;;;;;;3.30;2.80;;;8.40;99.90;;;;;;6133484;23;20401;-89
2022/03/14 04:24:59;;;;;;;3.13;2.83;;;8.30;99.90;;;;;;6131528;23;21025;-89
2022/03/14 04:27:25;;;;;;;3.40;2.80;;;8.30;99.90;;;;;;6131873;23;20771;-89
2022/03/14 04:29:53;;;;;;;4.80;3.93;;;8.30;99.90;;;;;;6126794;23;20391;-90
2022/03/14 04:32:28;;;;;;;3.10;2.80;;;8.10;99.90;;;;;;6126509;23;21026;-89
2022/03/14 04:34:54;;;;;;;2.97;2.67;;;8.10;99.90;;;;;;6127271;23;20466;-89
2022/03/14 04:37:19;;;;;;;2.03;1.83;;;8.10;99.90;;;;;;6125069;23;20439;-89
2022/03/14 04:39:46;;;;;;;2.40;1.90;;;8.10;99.90;;;;;;6128003;23;20387;-89
2022/03/14 04:42:11;;;;;;;2.17;1.97;;;8.10;99.90;;;;;;6131149;23;20702;-90
2022/03/14 04:44:37;;;;;;;1.90;1.70;;;8.00;99.90;;;;;;6125765;23;20430;-89
2022/03/14 04:47:03;;;;;;;1.50;1.40;;;8.00;99.90;;;;;;6125197;23;20231;-89
2022/03/14 04:49:29;;;;;;;1.30;1.20;;;8.00;99.90;;;;;;6129441;23;20211;-91
2022/03/14 04:51:55;;;;;;;1.40;1.23;;;8.00;99.90;;;;;;6128096;23;20798;-92
2022/03/14 04:54:22;;;;;;;1.67;1.23;;;8.00;99.90;;;;;;6130315;23;20423;-92
2022/03/14 04:56:48;;;;;;;1.10;1.10;;;8.00;99.90;;;;;;6129552;23;20593;-93
2022/03/14 04:59:14;;;;;;;1.30;1.20;;;8.00;99.90;;;;;;6129111;23;20422;-90
2022/03/14 05:01:40;;;;;;;1.60;1.00;;;8.00;99.90;;;;;;6122008;23;20421;-90
2022/03/14 05:04:06;;;;;;;1.03;0.93;;;8.10;99.90;;;;;;6127733;23;21009;-90
2022/03/14 05:06:36;;;;;;;0.97;0.90;;;8.10;99.90;;;;;;6128736;23;20640;-90
2022/03/14 05:09:01;;;;;;;0.90;0.90;;;8.00;99.90;;;;;;6130667;23;20740;-90
2022/03/14 05:11:27;;;;;;;1.00;1.00;;;8.00;99.90;;;;;;6130129;23;20892;-90
2022/03/14 05:13:54;;;;;;;1.27;1.20;;;7.90;99.90;;;;;;6124006;23;20388;-89
2022/03/14 05:16:19;;;;;;;1.53;1.37;;;7.90;99.90;;;;;;6125674;23;20396;-90
2022/03/14 05:18:46;;;;;;;2.90;1.40;;;7.90;99.90;;;;;;6129426;23;20415;-90
2022/03/14 05:21:19;;;;;;;3.20;1.30;;;7.80;99.90;;;;;;6125735;23;20157;-90
2022/03/14 05:23:45;;;;;;;2.00;1.43;;;7.90;99.90;;;;;;6116476;23;20479;-89
2022/03/14 05:26:10;;;;;;;3.17;2.40;;;7.90;99.90;;;;;;6127173;23;20503;-81
2022/03/14 05:28:36;;;;;;;2.53;1.90;;;7.90;99.90;;;;;;6154694;23;20530;-80
2022/03/14 05:31:02;;;;;;;2.33;1.53;;;7.90;99.90;;;;;;6129001;23;20257;-80
2022/03/14 05:33:28;;;;;;;1.60;1.50;;;7.90;99.90;;;;;;6134806;23;20185;-81
2022/03/14 05:35:54;;;;;;;1.40;1.30;;;7.90;99.90;;;;;;6130676;23;20789;-81
2022/03/14 05:38:22;;;;;;;1.57;1.47;;;7.80;99.90;;;;;;6128028;23;20200;-81
2022/03/14 05:40:48;;;;;;;1.50;1.40;;;7.80;99.90;;;;;;6126652;23;20353;-81
2022/03/14 05:43:13;;;;;;;1.43;1.37;;;7.80;99.90;;;;;;6125594;23;20427;-82
2022/03/14 05:45:39;;;;;;;0.83;0.83;;;7.80;99.90;;;;;;6124159;23;20596;-81
2022/03/14 05:48:05;;;;;;;0.80;0.80;;;7.80;99.90;;;;;;6122319;23;20218;-81
2022/03/14 05:50:31;;;;;;;1.07;1.07;;;7.80;99.90;;;;;;6125240;23;20717;-81
2022/03/14 05:52:56;;;;;;;1.10;1.00;;;7.90;99.90;;;;;;6119563;23;20400;-82
2022/03/14 05:55:23;;;;;;;0.97;0.97;;;7.90;99.90;;;;;;6122625;23;20897;-81
2022/03/14 05:57:49;;;;;;;1.10;1.00;;;7.80;99.90;;;;;;6121005;23;20195;-81
2022/03/14 06:00:22;;;;;;;0.77;0.77;;;7.80;99.90;;;;;;6124790;23;20403;-87
2022/03/14 06:02:52;;;;;;;0.73;0.73;;;7.90;99.90;;;;;;6124684;23;20230;-88
2022/03/14 06:05:25;;;;;;;1.70;1.40;;;7.90;99.90;;;;;;6124980;23;20383;-87
2022/03/14 06:07:54;;;;;;;1.43;1.33;;;7.90;99.90;;;;;;6055369;23;20400;-88
2022/03/14 06:10:27;;;;;;;1.73;1.63;;;8.00;99.90;;;;;;6152953;23;20407;-88
2022/03/14 06:12:55;;;;;;;2.50;1.40;;;8.00;99.90;;;;;;6128648;23;20697;-87
2022/03/14 06:15:21;;;;;;;0.93;0.93;;;8.00;99.90;;;;;;6138898;23;20398;-88
2022/03/14 06:17:47;;;;;;;0.90;0.90;;;8.00;99.90;;;;;;6129960;23;20439;-87
2022/03/14 06:20:14;;;;;;;2.00;1.90;;;8.00;99.90;;;;;;6127587;23;20160;-88
2022/03/14 06:22:41;;;;;;;0.80;0.80;;;8.00;99.90;;;;;;6129801;23;20167;-88
2022/03/14 06:25:08;;;;;;;0.67;0.67;;;8.10;99.90;;;;;;6129805;23;20476;-86
2022/03/14 06:27:35;;;;;;;0.67;0.67;;;8.10;99.90;;;;;;6130485;23;20486;-86
2022/03/14 06:30:00;;;;;;;1.10;1.10;;;8.20;99.90;;;;;;6127451;23;20498;-88
2022/03/14 06:32:32;;;;;;;1.00;1.00;;;8.20;99.90;;;;;;6127416;23;20582;-87
2022/03/14 06:34:57;;;;;;;0.97;0.93;;;8.20;99.90;;;;;;6130633;23;20152;-87
2022/03/14 06:37:24;;;;;;;0.97;0.97;;;8.30;99.90;;;;;;6130472;23;20489;-87
2022/03/14 06:39:50;;;;;;;1.00;1.00;;;8.30;99.90;;;;;;6133573;23;20156;-87
2022/03/14 06:42:19;;;;;;;1.00;1.00;;;8.30;99.90;;;;;;6133953;23;20854;-85
2022/03/14 06:44:45;;;;;;;1.20;1.10;;;8.40;99.90;;;;;;6134076;23;20160;-86
2022/03/14 06:47:16;;;;;;;1.80;1.07;;;8.40;99.90;;;;;;6135125;23;20463;-86
2022/03/14 06:49:44;;;;;;;1.30;1.20;;;8.40;99.90;;;;;;6137995;23;20438;-86
2022/03/14 06:52:14;;;;;;;1.00;1.00;;;8.30;99.90;;;;;;6131168;23;20396;-86
2022/03/14 06:54:40;;;;;;;1.10;1.10;;;8.30;99.90;;;;;;6132699;23;20395;-87
2022/03/14 06:57:07;;;;;;;0.80;0.80;;;8.40;99.90;;;;;;6131524;23;20853;-86
2022/03/14 06:59:32;;;;;;;0.73;0.70;;;8.40;99.90;;;;;;6133135;23;20402;-86
2022/03/14 07:01:59;;;;;;;1.40;1.30;;;8.40;99.90;;;;;;6136820;23;20392;-86
2022/03/14 07:04:24;;;;;;;1.53;1.40;;;8.50;99.90;;;;;;6134042;23;20171;-86
2022/03/14 07:06:50;;;;;;;1.10;1.10;;;8.70;99.90;;;;;;6133362;23;20396;-86
2022/03/14 07:09:15;;;;;;;1.00;1.00;;;8.80;99.90;;;;;;6134271;23;20425;-87
2022/03/14 07:11:41;;;;;;;1.90;0.60;;;8.80;99.90;;;;;;6136054;23;20484;-86
2022/03/14 07:14:08;;;;;;;1.00;0.97;;;8.70;99.90;;;;;;6134418;23;20562;-86
2022/03/14 07:16:45;;;;;;;0.80;0.80;;;8.60;99.90;;;;;;6134233;23;20188;-86
2022/03/14 07:19:29;;;;;;;0.80;0.80;;;8.60;99.90;;;;;;6140559;23;21209;-85
2022/03/14 07:21:55;;;;;;;0.90;0.70;;;8.50;99.90;;;;;;6134900;23;20387;-87
2022/03/14 07:24:21;;;;;;;1.13;0.93;;;8.50;99.90;;;;;;6132897;23;20492;-86
2022/03/14 07:26:46;;;;;;;0.77;0.77;;;8.60;99.90;;;;;;6134153;23;20165;-85
2022/03/14 07:29:12;;;;;;;0.90;0.87;;;8.70;99.90;;;;;;6134054;23;20190;-86
2022/03/14 07:31:38;;;;;;;0.80;0.80;;;8.80;99.90;;;;;;6133228;23;20166;-86
2022/03/14 07:34:14;;;;;;;1.27;0.73;;;8.90;99.90;;;;;;6131777;23;20547;-86
2022/03/14 07:36:40;;;;;;;0.83;0.83;;;9.00;99.90;;;;;;6133949;23;20204;-86
2022/03/14 07:39:06;;;;;;;0.73;0.73;;;8.80;99.90;;;;;;6134585;23;20512;-86
2022/03/14 07:41:32;;;;;;;1.23;1.00;;;8.80;99.90;;;;;;6135252;23;20467;-86
2022/03/14 07:44:00;;;;;;;0.67;0.67;;;8.80;99.90;;;;;;6133955;23;20745;-86
2022/03/14 07:46:27;;;;;;;0.90;0.90;;;9.00;99.90;;;;;;6134249;23;20160;-86
2022/03/14 07:48:52;;;;;;;0.80;0.80;;;9.10;99.90;;;;;;6134862;23;20508;-86
2022/03/14 07:51:18;;;;;;;2.70;0.90;;;9.20;99.90;;;;;;6133208;23;20874;-86
2022/03/14 07:53:44;;;;;;;0.87;0.87;;;9.30;99.90;;;;;;6133221;23;20601;-86
2022/03/14 07:56:31;;;;;;;0.90;0.90;;;9.20;99.90;;;;;;6133556;23;20552;-86
2022/03/14 07:58:57;;;;;;;1.40;0.77;;;9.20;99.90;;;;;;6130092;23;20180;-86
2022/03/14 08:01:25;;;;;;;1.63;0.60;;;9.30;99.90;;;;;;6131534;23;20515;-86
2022/03/14 08:03:51;;;;;;;0.90;0.90;;;9.30;99.90;;;;;;6134940;23;20483;-86
2022/03/14 08:06:23;;;;;;;0.70;0.70;;;9.40;99.90;;;;;;6133139;23;20500;-86
2022/03/14 08:08:55;;;;;;;1.23;0.80;;;9.50;99.90;;;;;;6133727;23;20232;-86
2022/03/14 08:11:22;;;;;;;1.10;0.70;;;9.60;99.90;;;;;;6132444;23;20401;-87
2022/03/14 08:13:48;;;;;;;0.60;0.60;;;9.60;99.90;;;;;;6134295;23;20404;-87
2022/03/14 08:16:13;;;;;;;1.80;1.10;;;9.50;99.90;;;;;;6133340;23;20388;-87
2022/03/14 08:18:40;;;;;;;1.73;0.93;;;9.40;99.90;;;;;;6133410;23;20242;-86
2022/03/14 08:21:05;;;;;;;0.73;0.73;;;9.40;99.90;;;;;;6130754;23;20262;-86
2022/03/14 08:23:32;;;;;;;2.03;0.93;;;9.30;99.90;;;;;;6130555;23;20893;-86
2022/03/14 08:25:57;;;;;;;2.10;0.60;;;9.40;99.90;;;;;;6132753;23;20169;-86
2022/03/14 08:28:23;;;;;;;1.60;0.70;;;9.80;99.90;;;;;;6133747;23;20912;-86
2022/03/14 08:30:49;;;;;;;2.40;0.50;;;9.90;99.90;;;;;;6134921;23;20166;-87
2022/03/14 08:33:20;;;;;;;3.60;0.60;;;10.20;99.90;;;;;;6133623;23;20170;-86
2022/03/14 08:35:46;;;;;;;1.23;0.67;;;10.40;99.90;;;;;;6132769;23;20391;-86
2022/03/14 08:38:25;;;;;;;3.50;1.20;;;10.20;99.90;;;;;;6133023;23;20449;-86
2022/03/14 08:40:51;;;;;;;1.03;1.00;;;10.30;99.90;;;;;;6133931;23;20313;-87
2022/03/14 08:43:19;;;;;;;3.03;1.43;;;10.20;99.90;;;;;;6135040;23;20486;-86
2022/03/14 08:45:53;;;;;;;1.17;0.60;;;10.00;99.90;;;;;;6133388;23;20214;-86
2022/03/14 08:48:19;;;;;;;1.20;0.80;;;10.00;99.90;;;;;;6145787;23;20388;-86
2022/03/14 08:50:44;;;;;;;1.30;0.80;;;9.80;99.90;;;;;;6140808;23;20440;-86
2022/03/14 08:53:11;;;;;;;1.33;0.70;;;9.70;99.90;;;;;;6130139;23;20549;-86
2022/03/14 08:55:39;;;;;;;2.83;1.30;;;10.00;99.90;;;;;;6134060;23;20245;-87
2022/03/14 08:58:05;;;;;;;1.20;0.70;;;10.30;99.90;;;;;;6131872;23;20439;-87
2022/03/14 09:00:31;;;;;;;0.97;0.90;;;10.70;99.90;;;;;;6134835;23;20408;-87
2022/03/14 09:03:10;;;;;;;2.00;0.70;;;10.50;99.90;;;;;;6131687;23;20274;-86
2022/03/14 09:05:36;;;;;;;1.57;0.50;;;10.20;99.90;;;;;;6127855;23;20521;-86
2022/03/14 09:08:02;;;;;;;1.53;0.67;;;10.10;99.90;;;;;;6133115;23;20186;-87
2022/03/14 09:10:28;;;;;;;0.73;0.50;;;10.20;99.90;;;;;;6131350;23;20163;-87
2022/03/14 09:12:55;;;;;;;1.10;0.70;;;10.40;99.90;;;;;;6131749;23;20733;-86
2022/03/14 09:15:21;;;;;;;2.07;1.20;;;10.50;99.90;;;;;;6131605;23;20155;-87
2022/03/14 09:17:47;;;;;;;1.67;0.53;;;10.60;99.90;;;;;;6127299;23;20520;-87
2022/03/14 09:20:15;;;;;;;3.20;0.60;;;10.60;98.80;;;;;;6131869;23;20383;-87
2022/03/14 09:22:43;;;;;;;1.37;0.70;;;10.50;98.30;;;;;;6129339;23;20426;-87
2022/03/14 09:25:09;;;;;;;2.10;0.93;;;10.50;98.70;;;;;;6133489;23;20395;-86
2022/03/14 09:27:37;;;;;;;2.83;0.80;;;10.50;99.20;;;;;;6134106;23;21160;-87
2022/03/14 09:30:04;;;;;;;2.20;0.70;;;10.40;99.00;;;;;;6133473;23;20486;-87
2022/03/14 09:32:37;;;;;;;3.03;0.90;;;10.30;99.00;;;;;;6134562;23;20407;-86
2022/03/14 09:35:04;;;;;;;1.53;0.77;;;10.00;99.50;;;;;;6131040;23;20422;-87
2022/03/14 09:37:30;;;;;;;1.27;0.77;;;10.10;99.90;;;;;;6129660;23;20422;-86
2022/03/14 09:39:56;;;;;;;2.07;1.23;;;10.10;99.70;;;;;;6134524;23;20394;-87
2022/03/14 09:42:24;;;;;;;1.60;0.80;;;10.00;98.90;;;;;;6131856;23;20397;-86
2022/03/14 09:44:54;;;;;;;1.10;0.60;;;9.90;99.90;;;;;;6135285;23;20548;-87
2022/03/14 09:47:24;;;;;;;1.00;0.70;;;10.00;99.30;;;;;;6134334;23;20907;-86
2022/03/14 09:49:56;;;;;;;0.70;0.70;;;10.20;99.20;;;;;;6132898;23;20405;-85
2022/03/14 09:52:22;;;;;;;0.90;0.70;;;10.30;99.30;;;;;;6132706;23;20561;-86
2022/03/14 09:54:49;;;;;;;1.60;0.80;;;10.10;98.70;;;;;;6133456;23;20581;-87
2022/03/14 09:57:15;;;;;;;3.33;1.37;;;10.00;99.30;;;;;;6131694;23;20434;-86
2022/03/14 09:59:41;;;;;;;1.37;0.70;;;10.30;98.30;;;;;;6128663;23;20404;-86
2022/03/14 10:02:13;;;;;;;0.93;0.73;;;10.50;97.30;;;;;;6126587;23;20175;-87
2022/03/14 10:04:41;;;;;;;2.87;1.20;;;10.70;96.60;;;;;;6132790;23;20937;-88
2022/03/14 10:07:09;;;;;;;2.87;1.30;;;11.30;96.40;;;;;;6129089;23;20491;-89
2022/03/14 10:09:46;;;;;;;2.17;1.00;;;11.50;95.90;;;;;;6130059;23;20194;-89
2022/03/14 10:12:13;;;;;;;2.23;1.10;;;12.00;95.70;;;;;;6128035;23;20442;-88
2022/03/14 10:14:44;;;;;;;0.87;0.80;;;12.50;94.80;;;;;;6132691;23;20391;-89
2022/03/14 10:17:26;;;;;;;1.40;0.87;;;12.80;93.10;;;;;;6130608;23;20454;-88
2022/03/14 10:19:54;;;;;;;2.20;0.80;;;13.30;92.30;;;;;;6127682;23;20396;-88
2022/03/14 10:22:20;;;;;;;2.63;0.60;;;13.10;90.90;;;;;;6128225;23;20475;-86
2022/03/14 10:24:48;;;;;;;3.27;0.90;;;13.00;90.60;;;;;;6127009;23;20537;-86
2022/03/14 10:27:19;;;;;;;2.60;0.93;;;12.70;90.20;;;;;;6127991;23;20906;-87
2022/03/14 10:29:57;;;;;;;1.00;0.50;;;13.00;90.50;;;;;;6161215;23;20490;-87
2022/03/14 10:32:33;;;;;;;2.10;0.73;;;13.20;88.90;;;;;;6134251;23;21364;-87
2022/03/14 10:35:01;;;;;;;1.47;1.13;;;13.40;88.30;;;;;;6134841;23;20160;-88
2022/03/14 10:37:31;;;;;;;1.50;0.80;;;13.80;89.00;;;;;;6139243;23;20447;-88
2022/03/14 10:40:07;;;;;;;1.77;1.00;;;13.80;87.70;;;;;;6136270;23;20873;-87
2022/03/14 10:42:43;;;;;;;1.30;1.00;;;14.00;85.80;;;;;;6138636;23;20396;-88
2022/03/14 10:45:16;;;;;;;1.90;0.90;;;13.70;83.40;;;;;;6135593;23;20388;-89
2022/03/14 10:47:57;;;;;;;1.90;1.13;;;13.10;83.90;;;;;;6139252;23;20454;-89
2022/03/14 10:50:38;;;;;;;1.70;0.77;;;12.90;84.70;;;;;;6132833;23;20877;-88
2022/03/14 10:53:18;;;;;;;1.73;0.70;;;12.80;87.00;;;;;;6135440;23;20956;-88
2022/03/14 10:55:48;;;;;;;1.87;1.10;;;13.00;85.60;;;;;;6136448;23;20384;-89
2022/03/14 10:58:14;;;;;;;2.50;0.80;;;13.60;85.50;;;;;;6140287;23;20387;-89
2022/03/14 11:00:55;;;;;;;1.20;0.80;;;13.70;85.00;;;;;;6140496;23;20474;-89
2022/03/14 11:03:22;;;;;;;1.70;0.77;;;13.80;83.80;;;;;;6141114;23;20189;-89
2022/03/14 11:05:53;;;;;;;2.00;0.67;;;14.40;79.90;;;;;;6140768;23;20450;-91
2022/03/14 11:08:46;;;;;;;1.83;1.00;;;14.80;78.60;;;;;;6164542;23;20437;-88
2022/03/14 11:11:17;;;;;;;1.27;1.07;;;14.70;80.10;;;;;;6140470;23;20388;-90
2022/03/14 11:13:57;;;;;;;0.50;0.50;;;14.50;79.40;;;;;;6166828;23;20479;-90
2022/03/14 11:16:34;;;;;;;2.53;1.07;;;14.70;78.00;;;;;;6137537;23;20395;-91
2022/03/14 11:19:06;;;;;;;2.40;1.00;;;14.80;79.00;;;;;;6146177;23;20832;-90
2022/03/14 11:22:10;;;;;;;;;;;;;;;;;;;;;
2022/03/14 11:24:43;;;;;;;2.30;1.03;;;14.20;78.80;;;;;;6177670;23;20474;-95
2022/03/14 11:27:19;;;;;;;2.03;0.80;;;14.40;78.50;;;;;;6150013;23;20434;-96
2022/03/14 11:29:49;;;;;;;1.73;0.97;;;14.60;77.30;;;;;;6147612;23;20391;-93
2022/03/14 11:32:17;;;;;;;2.30;0.80;;;14.90;76.30;;;;;;6144934;23;20426;-89
2022/03/14 11:34:47;;;;;;;1.17;0.77;;;14.20;76.80;;;;;;6145528;23;20803;-95
2022/03/14 11:37:13;;;;;;;3.43;0.80;;;14.10;76.70;;;;;;6146482;23;20467;-92
2022/03/14 11:39:39;;;;;;;2.40;1.00;;;14.30;76.10;;;;;;6140025;23;20415;-92
2022/03/14 11:42:06;;;;;;;3.90;1.10;;;14.60;73.80;;;;;;6140841;23;20419;-96
2022/03/14 11:44:37;;;;;;;0.93;0.90;;;14.90;73.80;;;;;;6144492;23;20890;-91
2022/03/14 11:47:04;;;;;;;1.23;1.07;;;15.30;72.40;;;;;;6139462;23;20423;-92
2022/03/14 11:49:34;;;;;;;1.90;1.00;;;15.70;73.50;;;;;;6119902;23;20403;-92
2022/03/14 11:52:22;;;;;;;1.83;0.73;;;16.10;73.20;;;;;;6146120;23;20414;-94
2022/03/14 11:55:03;;;;;;;1.17;0.70;;;15.90;71.70;;;;;;6139504;23;21075;-93
2022/03/14 11:57:41;;;;;;;1.60;0.70;;;15.50;71.00;;;;;;6132369;23;20384;-93
2022/03/14 12:00:33;;;;;;;3.10;0.80;;;15.30;71.10;;;;;;6138255;23;21023;-90
2022/03/14 12:03:01;;;;;;;2.10;1.00;;;16.00;71.10;;;;;;6142030;23;20410;-88
2022/03/14 12:05:35;;;;;;;1.73;0.93;;;15.70;68.60;;;;;;6134617;23;20455;-90
2022/03/14 12:08:29;;;;;;;1.50;0.80;;;15.40;71.20;;;;;;6131222;23;20763;-89
2022/03/14 12:10:55;;;;;;;2.20;0.90;;;15.70;71.80;;;;;;6130579;23;20518;-88
2022/03/14 12:13:56;;;;;;;1.27;0.90;;;15.50;72.50;;;;;;6132221;23;20846;-91
2022/03/14 12:16:44;;;;;;;2.20;1.03;;;15.20;70.00;;;;;;6009991;23;20163;-90
2022/03/14 12:19:31;;;;;;;2.80;1.00;;;15.30;72.90;;;;;;6123790;23;20392;-89
2022/03/14 12:22:00;;;;;;;2.07;1.67;;;15.50;72.90;;;;;;6158235;23;20550;-90
2022/03/14 12:24:38;;;;;;;1.67;0.97;;;15.90;70.30;;;;;;6132743;23;20501;-91
2022/03/14 12:27:24;;;;;;;2.40;1.03;;;15.50;71.90;;;;;;6157525;23;20775;-91
2022/03/14 12:29:51;;;;;;;2.00;0.70;;;15.30;68.70;;;;;;6130223;23;20663;-88
2022/03/14 12:32:38;;;;;;;1.03;0.90;;;15.00;69.80;;;;;;6138182;23;20388;-90
2022/03/14 12:35:12;;;;;;;1.93;0.80;;;14.90;70.20;;;;;;6136695;23;20462;-90
2022/03/14 12:37:51;;;;;;;1.07;0.80;;;15.00;71.10;;;;;;6136037;23;20906;-92
2022/03/14 12:40:21;;;;;;;1.43;0.90;;;15.60;70.10;;;;;;6160800;23;20392;-90
2022/03/14 12:42:52;;;;;;;2.83;1.00;;;16.10;72.80;;;;;;6136517;23;20907;-89
2022/03/14 12:45:31;;;;;;;3.40;1.10;;;16.40;68.00;;;;;;6132352;23;20961;-89
2022/03/14 12:48:05;;;;;;;2.50;1.00;;;16.80;65.60;;;;;;6135188;23;20434;-90
2022/03/14 12:50:43;;;;;;;0.70;0.70;;;16.80;63.10;;;;;;6140116;23;20422;-90
2022/03/14 12:53:12;;;;;;;1.07;0.90;;;16.80;64.30;;;;;;6136941;23;20579;-91
2022/03/14 12:55:52;;;;;;;0.97;0.90;;;16.70;62.40;;;;;;6135153;23;20450;-88
2022/03/14 12:58:26;;;;;;;3.13;0.93;;;16.80;62.20;;;;;;6134208;23;20422;-90